South Haven, MI

8:44 AM EDT on October 22, 2017 (GMT -0400)
South Haven

Weather History for KLWA - January, 2012

Change the Weather History Date:

Monday, January 23, 2012

  Actual Average (KBEH) Record (KBEH)
Temperature  
Mean Temperature 40 °F -  
Max Temperature 48 °F 35 °F 56 °F (1967)
Min Temperature 32 °F 20 °F -9 °F (2011)
Degree Days  
Heating Degree Days 25    
Moisture  
Dew Point 37 °F    
Average Humidity 89    
Maximum Humidity 100    
Minimum Humidity 69    
Precipitation  
Precipitation 0.00 in - - ()
Sea Level Pressure  
Sea Level Pressure 29.51 in    
Wind  
Wind Speed 14 mph (SSW)    
Max Wind Speed 26 mph    
Max Gust Speed 38 mph    
Visibility 7 miles    
Events Rain    
Averages and records for this station are not official NWS values.
T = Trace of Precipitation, MM = Missing Value Source: NWS Daily Summary

Daily Weather History Graph

Daily Weather History Graph

Search for Another Location

Airport or City:

Trip Planner

Search our weather history database for the weather conditions in past years. The results will help you decide how hot, cold, wet, or windy it might be!

Date:

Astronomy

Jan. 23, 2012 Rise Set
Actual Time 8:07 AM EST 5:46 PM EST
Civil Twilight 7:36 AM EST 6:17 PM EST
Nautical Twilight 7:02 AM EST 6:51 PM EST
Astronomical Twilight 6:29 AM EST 7:25 PM EST
Moon 8:01 AM EST (1/23) 6:35 PM EST (1/23)
Length of Visible Light 10h 40m
Length of Day
9h 39m
New Moon, 0% of the Moon is Illuminated
Jan 23
New Moon
Jan 30
First Quarter
Feb 7
Full
Feb 14
Last Quarter
Feb 21
New

Hourly Weather History & Observations

Time (EST) Temp. Windchill Dew Point Humidity Pressure Visibility Wind Dir Wind Speed Gust Speed Precip Events Conditions
12:14 AM 41.0 °F 33.5 °F 39.2 °F 93% 29.56 in 1.5 mi SE 13.8 mph 18.4 mph N/A   Overcast
12:35 AM 41.0 °F 33.5 °F 41.0 °F 100% 29.55 in 1.2 mi SSE 13.8 mph 20.7 mph N/A Rain Rain
12:36 AM 41.0 °F 33.9 °F 41.0 °F 100% 29.55 in 1.2 mi SSE 12.7 mph 20.7 mph N/A Rain Rain
1:05 AM 42.8 °F 36.6 °F 41.0 °F 93% 29.51 in 2.5 mi SE 11.5 mph 17.3 mph N/A   Overcast
1:25 AM 42.8 °F 37.0 °F 41.0 °F 93% 29.49 in 4.0 mi SE 10.4 mph - N/A   Overcast
1:45 AM 42.8 °F 36.2 °F 41.0 °F 93% 29.47 in 5.0 mi SE 12.7 mph 19.6 mph N/A   Overcast
2:05 AM 42.8 °F 36.6 °F 41.0 °F 93% 29.46 in 5.0 mi ESE 11.5 mph - N/A   Overcast
2:25 AM 42.8 °F 36.2 °F 41.0 °F 93% 29.50 in 2.5 mi SSW 12.7 mph 23.0 mph N/A   Overcast
3:25 AM 44.6 °F 39.7 °F 44.6 °F 100% 29.45 in 7.0 mi South 9.2 mph - N/A   Overcast
3:45 AM 46.4 °F 41.5 °F 44.6 °F 93% 29.44 in 7.0 mi South 10.4 mph 16.1 mph N/A   Overcast
4:05 AM 46.4 °F 41.5 °F 44.6 °F 93% 29.44 in 10.0 mi SSE 10.4 mph 16.1 mph N/A   Overcast
4:25 AM 46.4 °F 41.9 °F 44.6 °F 93% 29.41 in 10.0 mi SE 9.2 mph - N/A   Overcast
4:45 AM 44.6 °F 40.7 °F 42.8 °F 93% 29.38 in 5.0 mi SE 6.9 mph - N/A   Overcast
5:05 AM 44.6 °F 41.4 °F 42.8 °F 93% 29.39 in 7.0 mi SSE 5.8 mph - N/A   Overcast
5:25 AM 44.6 °F 40.2 °F 42.8 °F 93% 29.38 in 7.0 mi SSE 8.1 mph - N/A   Mostly Cloudy
5:45 AM 44.6 °F 39.7 °F 42.8 °F 93% 29.38 in 10.0 mi SSE 9.2 mph - N/A   Mostly Cloudy
6:25 AM 44.6 °F 40.2 °F 42.8 °F 93% 29.39 in 10.0 mi SSE 8.1 mph 17.3 mph N/A   Overcast
6:45 AM 44.6 °F 39.2 °F 42.8 °F 93% 29.39 in 10.0 mi SSE 10.4 mph 17.3 mph N/A   Overcast
7:05 AM 44.6 °F 38.1 °F 42.8 °F 93% 29.39 in 10.0 mi South 13.8 mph 20.7 mph N/A   Overcast
7:25 AM 44.6 °F 38.4 °F 42.8 °F 93% 29.39 in 10.0 mi South 12.7 mph 17.3 mph N/A   Overcast
7:45 AM 46.4 °F 41.1 °F 42.8 °F 87% 29.39 in 10.0 mi South 11.5 mph 20.7 mph N/A   Overcast
8:05 AM 46.4 °F 40.7 °F 42.8 °F 87% 29.39 in 10.0 mi South 12.7 mph 23.0 mph N/A   Overcast
8:25 AM 46.4 °F 40.7 °F 42.8 °F 87% 29.39 in 10.0 mi South 12.7 mph 19.6 mph N/A   Overcast
8:45 AM 46.4 °F 41.5 °F 42.8 °F 87% 29.38 in 10.0 mi South 10.4 mph 18.4 mph N/A   Overcast
9:05 AM 46.4 °F 41.9 °F 42.8 °F 87% 29.38 in 10.0 mi South 9.2 mph 19.6 mph N/A   Overcast
9:25 AM 46.4 °F 41.5 °F 44.6 °F 93% 29.39 in 10.0 mi South 10.4 mph - N/A   Overcast
9:45 AM 48.2 °F - 44.6 °F 87% 29.39 in 10.0 mi South 11.5 mph 17.3 mph N/A   Overcast
10:05 AM 48.2 °F - 44.6 °F 87% 29.39 in 10.0 mi South 13.8 mph 18.4 mph N/A   Overcast
10:45 AM 48.2 °F - 44.6 °F 87% 29.39 in 10.0 mi SW 15.0 mph 20.7 mph N/A   Overcast
11:05 AM 46.4 °F 39.5 °F 44.6 °F 93% 29.40 in 5.0 mi SW 17.3 mph 27.6 mph N/A   Overcast
11:25 AM 46.4 °F 38.7 °F 42.8 °F 87% 29.40 in 5.0 mi SW 20.7 mph 29.9 mph N/A   Overcast
11:45 AM 44.6 °F 38.1 °F 42.8 °F 93% 29.41 in 1.0 mi SW 13.8 mph 24.2 mph N/A   Overcast
12:05 PM 42.8 °F 33.3 °F 41.0 °F 93% 29.41 in 1.8 mi SW 24.2 mph 34.5 mph N/A   Overcast
12:25 PM 39.2 °F 29.0 °F 37.4 °F 93% 29.43 in 5.0 mi SW 21.9 mph 33.4 mph N/A   Overcast
12:45 PM 37.4 °F 26.9 °F 35.6 °F 93% 29.44 in 3.0 mi SW 20.7 mph 29.9 mph N/A   Overcast
1:05 PM 37.4 °F 27.5 °F 35.6 °F 93% 29.45 in 4.0 mi SW 18.4 mph 31.1 mph N/A   Overcast
1:25 PM 37.4 °F 26.4 °F 33.8 °F 87% 29.46 in 5.0 mi SW 23.0 mph 35.7 mph N/A   Overcast
2:25 PM 35.6 °F 24.5 °F 33.8 °F 93% 29.48 in 5.0 mi SW 20.7 mph 31.1 mph N/A   Overcast
2:45 PM 35.6 °F 25.2 °F 33.8 °F 93% 29.49 in 4.0 mi SW 18.4 mph 32.2 mph N/A   Overcast
3:05 PM 35.6 °F 24.0 °F 32.0 °F 87% 29.51 in 3.0 mi SW 23.0 mph 34.5 mph N/A   Overcast
3:25 PM 33.8 °F 21.3 °F 32.0 °F 93% 29.52 in 2.5 mi SW 24.2 mph 34.5 mph N/A   Overcast
4:05 PM 33.8 °F 23.5 °F 32.0 °F 93% 29.54 in 4.0 mi SW 16.1 mph 32.2 mph N/A   Overcast
4:25 PM 33.8 °F 22.5 °F 32.0 °F 93% 29.56 in 5.0 mi WSW 19.6 mph 31.1 mph N/A   Overcast
4:45 PM 33.8 °F 23.2 °F 32.0 °F 93% 29.58 in 10.0 mi SW 17.3 mph 28.8 mph N/A   Overcast
5:05 PM 33.8 °F 22.5 °F 30.2 °F 87% 29.59 in 10.0 mi WSW 19.6 mph 32.2 mph N/A   Overcast
5:25 PM 33.8 °F 21.3 °F 30.2 °F 87% 29.61 in 10.0 mi SW 24.2 mph 32.2 mph N/A   Overcast
5:45 PM 33.8 °F 22.2 °F 28.4 °F 81% 29.64 in 10.0 mi WSW 20.7 mph 33.4 mph N/A   Overcast
6:05 PM 33.8 °F 22.2 °F 28.4 °F 81% 29.66 in 10.0 mi WSW 20.7 mph 32.2 mph N/A   Overcast
6:25 PM 32.0 °F 18.4 °F 26.6 °F 80% 29.67 in 10.0 mi WSW 26.5 mph 38.0 mph N/A   Overcast
6:45 PM 32.0 °F 18.9 °F 26.6 °F 80% 29.69 in 10.0 mi WSW 24.2 mph 33.4 mph N/A   Overcast
7:05 PM 32.0 °F 20.1 °F 26.6 °F 80% 29.71 in 10.0 mi WSW 19.6 mph 31.1 mph N/A   Overcast
7:25 PM 32.0 °F 19.8 °F 26.6 °F 80% 29.72 in 10.0 mi WSW 20.7 mph 34.5 mph N/A   Overcast
7:45 PM 32.0 °F 20.1 °F 24.8 °F 75% 29.74 in 10.0 mi WSW 19.6 mph 33.4 mph N/A   Overcast
8:05 PM 32.0 °F 20.5 °F 24.8 °F 75% 29.75 in 10.0 mi WSW 18.4 mph 36.8 mph N/A   Overcast
8:25 PM 32.0 °F 18.4 °F 24.8 °F 75% 29.76 in 10.0 mi WSW 26.5 mph 33.4 mph N/A   Overcast
9:05 PM 32.0 °F 19.5 °F 24.8 °F 75% 29.78 in 10.0 mi WSW 21.9 mph 29.9 mph N/A   Overcast
9:25 PM 32.0 °F 20.5 °F 23.0 °F 69% 29.79 in 10.0 mi West 18.4 mph 33.4 mph N/A   Overcast
9:45 PM 32.0 °F 19.8 °F 23.0 °F 69% 29.80 in 10.0 mi WSW 20.7 mph 36.8 mph N/A   Overcast
10:05 PM 32.0 °F 19.2 °F 23.0 °F 69% 29.81 in 10.0 mi WSW 23.0 mph 33.4 mph N/A   Overcast
10:25 PM 32.0 °F 20.1 °F 23.0 °F 69% 29.82 in 10.0 mi West 19.6 mph 28.8 mph N/A   Overcast
10:45 PM 32.0 °F 20.1 °F 23.0 °F 69% 29.82 in 10.0 mi West 19.6 mph 27.6 mph N/A   Overcast
11:05 PM 32.0 °F 20.8 °F 23.0 °F 69% 29.83 in 10.0 mi West 17.3 mph 29.9 mph N/A   Overcast
11:25 PM 32.0 °F 20.8 °F 23.0 °F 69% 29.84 in 10.0 mi West 17.3 mph 27.6 mph N/A   Overcast
11:45 PM 32.0 °F 20.8 °F 23.0 °F 69% 29.84 in 10.0 mi WSW 17.3 mph 24.2 mph N/A   Overcast